CW4279 Weather Reports


Display with metric or nautical units.
time (UTC)temp
F
wind
direction
speed
MPH
gust
MPH
rain 1hr
in
rain 24hr
in
rain mn
in
humidity
%
barometer
mb
20240617074219 69 340 2.0 2.0 0.00 0.00 0.00 78 1010.2
20240617073718 69 321 0.0 2.0 0.00 0.00 0.00 76 1010.2
20240617073216 69 327 1.0 2.0 0.00 0.00 0.00 78 1010.4
20240617072714 69 319 0.0 1.0 0.00 0.00 0.00 82 1010.3
20240617072213 69 313 0.0 2.0 0.00 0.00 0.00 80 1010.2
20240617071712 69 332 1.0 2.0 0.00 0.00 0.00 81 1010.2
20240617071211 69 329 3.0 3.0 0.00 0.00 0.00 80 1009.9
20240617070709 69 336 2.0 2.0 0.00 0.00 0.00 82 1010.1
20240617070208 69 298 0.0 1.0 0.00 0.00 0.00 81 1010.3
20240617065708 69 296 1.0 1.0 0.00 0.00 0.00 82 1010.3
20240617065207 70 295 0.0 0.0 0.00 0.00 0.00 82 1010.2
20240617064706 70 295 0.0 1.0 0.00 0.00 0.00 81 1010.1
20240617064204 70 312 1.0 1.0 0.00 0.00 0.00 79 1010.0
20240617063702 70 318 1.0 1.0 0.00 0.00 0.00 78 1009.7
20240617063202 71 329 1.0 2.0 0.00 0.00 0.00 78 1009.8
20240617062700 71 327 3.0 3.0 0.00 0.00 0.00 76 1009.9
20240617062158 72 327 1.0 2.0 0.00 0.00 0.00 75 1009.7
20240617061656 72 334 1.0 1.0 0.00 0.00 0.00 75 1009.7
20240617061155 72 345 2.0 3.0 0.00 0.00 0.00 73 1009.8
20240617060653 72 334 1.0 2.0 0.00 0.00 0.00 75 1009.8
20240617060151 73 305 1.0 2.0 0.00 0.00 0.00 74 1009.8
20240617055650 73 25 2.0 3.0 0.00 0.00 0.00 75 1009.8
20240617055148 73 358 1.0 2.0 0.00 0.00 0.00 73 1009.7
20240617054648 73 339 1.0 3.0 0.00 0.00 0.00 74 1009.7
20240617054147 73 63 4.0 6.0 0.00 0.00 0.00 75 1009.7
20240617053647 73 310 1.0 5.0 0.00 0.00 0.00 77 1009.7
20240617053145 74 0 2.0 3.0 0.00 0.00 0.00 82 1009.4
20240617052642 74 350 3.0 5.0 0.00 0.00 0.00 81 1009.6
20240617052141 74 260 3.0 3.0 0.00 0.00 0.00 84 1009.5
20240617051640 73 55 5.0 6.0 0.00 0.00 0.00 88 1009.6
20240617051138 73 344 2.0 3.0 0.00 0.00 0.00 89 1009.8
20240617050635 74 342 2.0 2.0 0.00 0.00 0.00 90 1009.5
20240617050122 73 348 1.0 2.0 0.00 0.00 0.00 91 1009.3
20240617045622 74 27 1.0 5.0 0.00 0.26 0.26 91 1009.6
20240617045120 73 339 3.0 5.0 0.00 0.26 0.26 94 1009.3
20240617044619 73 248 1.0 1.0 0.00 0.26 0.26 94 1009.2
20240617044119 73 247 1.0 2.0 0.00 0.26 0.26 94 1008.9
20240617043618 74 244 0.0 1.0 0.00 0.26 0.26 93 1008.7
20240617043117 74 241 0.0 0.0 0.00 0.26 0.26 93 1008.6
20240617042613 75 241 0.0 0.0 0.00 0.26 0.26 92 1008.4
20240617042112 75 241 0.0 0.0 0.00 0.26 0.26 92 1008.7
20240617041611 75 241 0.0 0.0 0.00 0.26 0.26 91 1008.5
20240617041110 75 219 1.0 1.0 0.00 0.26 0.26 91 1008.5
20240617040609 75 213 1.0 2.0 0.00 0.26 0.26 91 1008.3
20240617040108 75 230 0.0 0.0 0.00 0.26 0.26 90 1008.3
20240617035606 76 230 0.0 0.0 0.00 0.26 0.26 90 1007.9
20240617035104 76 230 0.0 1.0 0.00 0.26 0.26 89 1008.1
20240617034604 76 237 0.0 1.0 0.00 0.26 0.26 89 1008.2
20240617034102 76 239 0.0 0.0 0.00 0.26 0.26 88 1008.5
20240617033559 77 239 0.0 1.0 0.00 0.26 0.26 87 1008.0
20240617033059 77 223 0.0 1.0 0.00 0.26 0.26 86 1007.9
20240617032556 77 219 2.0 2.0 0.00 0.26 0.26 86 1007.7
20240617032055 77 235 1.0 2.0 0.00 0.26 0.26 87 1007.7
20240617031555 76 228 1.0 1.0 0.00 0.26 0.26 87 1007.5
20240617031052 76 228 0.0 0.0 0.00 0.26 0.26 89 1007.3
20240617030552 75 228 0.0 1.0 0.00 0.26 0.26 90 1007.2
20240617030050 75 228 0.0 1.0 0.00 0.26 0.26 91 1006.9
20240617025548 75 228 1.0 1.0 0.00 0.26 0.26 91 1006.9
20240617025047 75 227 1.0 1.0 0.00 0.26 0.26 91 1006.7
20240617024545 75 227 1.0 1.0 0.00 0.26 0.26 92 1006.8
20240617024044 75 228 1.0 1.0 0.00 0.26 0.26 91 1006.9
20240617023545 77 228 0.0 1.0 0.00 0.26 0.26 88 1006.8
20240617023044 76 228 0.0 1.0 0.00 0.26 0.26 88 1006.8
20240617022544 76 229 0.0 1.0 0.00 0.26 0.26 89 1006.8
20240617022043 77 228 0.0 1.0 0.00 0.26 0.26 88 1006.6
20240617021541 76 228 1.0 1.0 0.00 0.26 0.26 89 1006.5
20240617021039 76 229 0.0 1.0 0.00 0.26 0.26 90 1006.6
20240617020539 76 229 0.0 1.0 0.00 0.26 0.26 90 1006.2
20240617020038 76 227 1.0 1.0 0.00 0.26 0.26 89 1006.1
20240617015538 77 231 1.0 1.0 0.00 0.26 0.26 89 1005.9
20240617015036 78 231 0.0 1.0 0.00 0.26 0.26 87 1006.0
20240617014535 78 232 0.0 0.0 0.00 0.26 0.26 86 1006.0
20240617014034 78 232 0.0 0.0 0.00 0.26 0.26 86 1006.1
20240617013532 79 232 0.0 0.0 0.00 0.26 0.26 86 1006.1
20240617013031 80 231 1.0 1.0 0.00 0.26 0.26 83 1005.9
20240617012531 81 232 0.0 0.0 0.00 0.26 0.26 80 1006.0
20240617012030 81 232 0.0 1.0 0.00 0.26 0.26 79 1005.8
20240617011528 81 253 1.0 1.0 0.00 0.26 0.26 78 1006.0
20240617011027 82 209 1.0 1.0 0.00 0.26 0.26 78 1006.1
20240617010526 82 247 1.0 1.0 0.00 0.26 0.26 77 1005.9
20240617010026 82 177 1.0 2.0 0.00 0.26 0.26 76 1006.0
20240617005525 83 246 1.0 6.0 0.00 0.26 0.26 76 1005.9
20240617005024 83 235 1.0 2.0 0.00 0.26 0.26 76 1005.8
20240617004523 83 245 1.0 5.0 0.00 0.26 0.26 76 1006.1
20240617004023 83 231 2.0 3.0 0.00 0.26 0.26 76 1005.7
20240617003522 83 224 4.0 6.0 0.00 0.26 0.26 76 1006.0
20240617003021 83 245 4.0 5.0 0.00 0.26 0.26 78 1005.8
20240617002520 84 230 0.0 2.0 0.00 0.26 0.26 77 1005.7
20240617002018 84 252 1.0 1.0 0.00 0.26 0.26 79 1005.6
20240617001517 84 243 1.0 2.0 0.00 0.26 0.26 77 1005.5
20240617001016 83 211 1.0 3.0 0.00 0.26 0.26 78 1005.5
20240617000514 83 233 0.0 3.0 0.00 0.26 0.26 78 1005.5
20240617000013 83 254 1.0 2.0 0.00 0.26 0.26 78 1005.5
20240616235512 84 210 1.0 2.0 0.00 0.26 0.26 77 1005.3
20240616235011 84 255 0.0 5.0 0.00 0.26 0.26 76 1005.1
20240616234509 84 219 2.0 2.0 0.00 0.26 0.26 75 1005.2
20240616234008 85 231 2.0 3.0 0.00 0.26 0.26 74 1004.8
20240616233508 86 267 1.0 3.0 0.00 0.26 0.26 73 1005.0
20240616233007 86 192 3.0 5.0 0.00 0.26 0.26 73 1004.6
20240616232505 85 264 2.0 5.0 0.00 0.26 0.26 71 1004.8
20240616232003 86 229 2.0 5.0 0.00 0.26 0.26 72 1004.8
20240616231502 87 65 1.0 5.0 0.00 0.26 0.26 71 1004.7
20240616231000 87 207 1.0 2.0 0.00 0.26 0.26 73 1004.4
20240616230500 87 250 2.0 2.0 0.00 0.26 0.26 74 1004.7
20240616225958 85 262 0.0 2.0 0.00 0.26 0.26 75 1004.4
20240616225456 85 226 1.0 7.0 0.00 0.26 0.26 74 1004.4
20240616224954 86 243 2.0 2.0 0.00 0.26 0.26 73 1004.2
20240616224452 86 228 1.0 1.0 0.00 0.26 0.26 73 1004.2
20240616223950 86 204 1.0 3.0 0.00 0.26 0.26 72 1004.4
20240616223449 86 248 2.0 2.0 0.00 0.26 0.26 74 1004.0
20240616222948 86 184 1.0 3.0 0.00 0.26 0.26 71 1004.1
20240616222446 86 217 2.0 7.0 0.00 0.26 0.26 70 1004.2
20240616221945 86 240 1.0 6.0 0.00 0.26 0.26 71 1004.1
20240616221445 87 185 2.0 5.0 0.00 0.26 0.26 69 1004.1
20240616220943 86 264 2.0 5.0 0.00 0.26 0.26 70 1004.0
20240616220443 87 192 2.0 6.0 0.00 0.26 0.26 70 1003.9
20240616215941 87 238 2.0 5.0 0.00 0.26 0.26 71 1004.3
20240616215440 86 223 1.0 3.0 0.00 0.26 0.26 73 1004.1
20240616214939 85 277 2.0 3.0 0.00 0.26 0.26 74 1004.3
20240616214438 84 236 1.0 2.0 0.00 0.26 0.26 75 1004.2
20240616213936 84 198 2.0 3.0 0.00 0.26 0.26 76 1004.1
20240616213435 84 230 2.0 3.0 0.00 0.26 0.26 75 1004.0
20240616212935 84 229 1.0 3.0 0.00 0.26 0.26 77 1004.2
20240616212433 85 244 3.0 3.0 0.00 0.26 0.26 76 1004.2
20240616211932 86 206 3.0 3.0 0.00 0.26 0.26 72 1004.0
20240616211431 86 188 2.0 6.0 0.00 0.26 0.26 73 1004.0
20240616210931 85 264 1.0 3.0 0.00 0.26 0.26 76 1004.0
20240616210429 85 228 1.0 3.0 0.00 0.26 0.26 77 1004.4
20240616205929 85 212 1.0 5.0 0.00 0.26 0.26 76 1004.3
20240616205428 84 249 2.0 5.0 0.00 0.26 0.26 76 1004.3
20240616204926 83 240 1.0 2.0 0.00 0.26 0.26 78 1004.4
20240616204425 83 224 2.0 2.0 0.00 0.26 0.26 79 1004.3
20240616203924 83 246 0.0 3.0 0.00 0.26 0.26 78 1004.3
20240616203422 83 202 1.0 3.0 0.00 0.26 0.26 76 1004.4
20240616202918 83 260 0.0 2.0 0.00 0.26 0.26 77 1004.3
20240616202417 83 205 1.0 2.0 0.00 0.26 0.26 77 1004.2
20240616201915 83 168 2.0 3.0 0.00 0.26 0.26 75 1004.5
20240616201414 83 163 2.0 5.0 0.00 0.26 0.26 76 1004.4
20240616200913 83 262 3.0 6.0 0.00 0.26 0.26 75 1004.3
20240616200412 83 262 2.0 2.0 0.00 0.26 0.26 75 1004.3
20240616195903 83 275 5.0 8.0 0.00 0.26 0.26 75 1004.5
20240616195402 83 283 2.0 5.0 0.00 0.26 0.26 76 1004.1
20240616194858 83 161 4.0 6.0 0.00 0.26 0.26 76 1004.2
20240616194351 83 182 4.0 6.0 0.00 0.26 0.26 74 1004.0
20240616193850 84 179 2.0 6.0 0.00 0.26 0.26 75 1004.3
20240616193348 84 191 2.0 3.0 0.00 0.26 0.26 75 1003.9
20240616192846 84 198 3.0 7.0 0.00 0.26 0.26 75 1004.0
20240616192338 83 190 2.0 7.0 0.00 0.26 0.26 75 1004.0
20240616191836 83 165 3.0 8.0 0.00 0.26 0.26 76 1003.9
20240616191335 84 213 6.0 9.0 0.00 0.26 0.26 74 1004.0
20240616190834 84 254 2.0 5.0 0.00 0.26 0.26 75 1003.8
20240616190331 84 246 2.0 6.0 0.00 0.26 0.26 77 1003.8
20240616185828 84 248 1.0 3.0 0.00 0.26 0.26 75 1003.8
20240616185329 84 224 3.0 7.0 0.00 0.26 0.26 77 1003.6
20240616184827 83 189 3.0 6.0 0.00 0.26 0.26 76 1003.8
20240616184326 83 190 2.0 3.0 0.00 0.26 0.26 77 1003.5
20240616183823 82 154 2.0 5.0 0.00 0.26 0.26 77 1004.0
20240616183321 82 231 5.0 7.0 0.00 0.26 0.26 76 1004.2
20240616182820 81 160 2.0 5.0 0.00 0.26 0.26 79 1004.2
20240616182319 81 187 3.0 5.0 0.00 0.26 0.26 80 1004.0
20240616181817 80 163 5.0 10.0 0.00 0.26 0.26 80 1004.4
20240616181317 80 193 1.0 5.0 0.00 0.26 0.26 82 1004.4
20240616180815 80 188 4.0 7.0 0.00 0.26 0.26 79 1004.3
20240616180314 80 197 3.0 7.0 0.00 0.26 0.26 81 1004.4
20240616175814 82 187 5.0 8.0 0.00 0.26 0.26 79 1004.3
20240616175312 81 124 3.0 6.0 0.00 0.26 0.26 80 1004.4
20240616174808 80 179 2.0 3.0 0.00 0.26 0.26 81 1004.4
20240616174308 80 187 2.0 3.0 0.00 0.26 0.26 81 1004.5
20240616173806 79 260 2.0 3.0 0.00 0.26 0.26 82 1004.1
20240616173305 79 203 2.0 3.0 0.00 0.26 0.26 83 1004.3
20240616172802 79 188 2.0 2.0 0.00 0.26 0.26 81 1004.7
20240616172301 79 217 2.0 2.0 0.00 0.26 0.26 84 1004.5
20240616171800 78 228 2.0 2.0 0.00 0.26 0.26 84 1004.5
20240616171259 77 238 1.0 2.0 0.00 0.26 0.26 87 1004.8
20240616170758 76 263 1.0 2.0 0.00 0.26 0.26 87 1004.8
20240616170257 75 202 2.0 3.0 0.00 0.26 0.26 86 1005.0
20240616165755 75 227 2.0 2.0 0.00 0.26 0.26 88 1005.2
20240616165254 75 179 3.0 5.0 0.00 0.26 0.26 87 1005.5
20240616164754 75 252 1.0 2.0 0.00 0.26 0.26 88 1005.5
20240616164253 75 320 3.0 5.0 0.00 0.26 0.26 87 1005.6
20240616163753 75 220 2.0 3.0 0.00 0.26 0.26 87 1005.3
20240616163252 75 178 4.0 5.0 0.00 0.26 0.26 87 1005.2
20240616162750 75 173 2.0 5.0 0.00 0.26 0.26 87 1005.3
20240616162250 75 211 2.0 2.0 0.00 0.26 0.26 88 1005.0
20240616161750 75 235 3.0 9.0 0.00 0.26 0.26 87 1005.3
20240616161249 75 168 5.0 6.0 0.00 0.26 0.26 87 1005.3
20240616160748 76 284 1.0 6.0 0.00 0.26 0.26 87 1005.3
20240616160247 75 173 4.0 7.0 0.00 0.26 0.26 87 1005.2
20240616155745 75 132 2.0 5.0 0.00 0.26 0.26 87 1005.2
20240616155243 75 148 3.0 6.0 0.00 0.26 0.26 86 1005.1
20240616154742 74 147 2.0 3.0 0.00 0.26 0.26 89 1005.4
20240616154241 74 148 3.0 3.0 0.00 0.26 0.26 89 1005.5
20240616153739 74 158 4.0 6.0 0.00 0.26 0.26 89 1005.4
20240616153237 74 155 3.0 3.0 0.00 0.26 0.26 88 1005.6
20240616152730 74 156 2.0 3.0 0.00 0.26 0.26 90 1005.7
20240616152217 73 166 3.0 3.0 0.00 0.26 0.26 90 1005.8
20240616151716 73 241 1.0 2.0 0.00 0.26 0.26 91 1005.7
20240616151214 72 141 3.0 3.0 0.00 0.26 0.26 91 1005.7
20240616150710 72 81 2.0 3.0 0.00 0.26 0.26 92 1005.8
20240616150209 72 222 3.0 7.0 0.00 0.26 0.26 91 1005.8
20240616145703 72 177 3.0 6.0 0.00 0.26 0.26 91 1005.7
20240616145202 71 170 2.0 3.0 0.00 0.26 0.26 93 1005.5
20240616144639 71 216 2.0 5.0 0.00 0.26 0.26 94 1005.9
20240616144138 70 144 2.0 5.0 0.00 0.26 0.26 94 1005.9
20240616143637 70 168 1.0 6.0 0.00 0.26 0.26 94 1006.0
20240616143136 70 157 2.0 5.0 0.00 0.26 0.26 94 1006.0
20240616142630 70 144 2.0 3.0 0.00 0.26 0.26 94 1005.9
20240616142123 70 141 2.0 5.0 0.00 0.26 0.26 94 1005.9
20240616141618 70 165 2.0 3.0 0.00 0.26 0.26 94 1005.8
20240616141118 70 222 1.0 3.0 0.00 0.26 0.26 94 1005.9
20240616140617 69 261 2.0 7.0 0.00 0.26 0.26 94 1005.9
20240616140115 69 254 2.0 3.0 0.00 0.26 0.26 95 1005.8
20240616135615 69 146 2.0 5.0 0.00 0.26 0.26 95 1005.7
20240616135114 68 195 2.0 3.0 0.00 0.26 0.26 96 1005.4
20240616134613 68 170 3.0 3.0 0.00 0.26 0.26 97 1005.2
20240616134112 68 220 1.0 3.0 0.00 0.26 0.26 97 1005.6
20240616133612 67 217 2.0 2.0 0.00 0.26 0.26 98 1005.6
20240616133110 67 193 1.0 2.0 0.00 0.26 0.26 98 1006.0
20240616132609 66 256 0.0 2.0 0.00 0.26 0.26 98 1005.9
20240616132108 66 234 1.0 2.0 0.00 0.26 0.26 99 1006.0
20240616131608 66 158 1.0 2.0 0.00 0.26 0.26 99 1006.1
20240616131106 66 219 1.0 2.0 0.00 0.26 0.26 99 1005.9
20240616130606 66 205 1.0 2.0 0.00 0.26 0.26 99 1005.7
20240616130105 65 219 2.0 3.0 0.00 0.26 0.26 99 1005.4
20240616125603 65 186 2.0 3.0 0.00 0.26 0.26 99 1005.3
20240616125102 65 181 1.0 2.0 0.00 0.26 0.26 99 1005.7
20240616124601 65 198 1.0 2.0 0.00 0.26 0.26 99 1005.9
20240616124100 65 203 1.0 1.0 0.00 0.26 0.26 99 1006.0
20240616123559 65 241 0.0 2.0 0.00 0.26 0.26 99 1005.8
20240616123058 65 217 1.0 2.0 0.00 0.26 0.26 99 1006.0
20240616122557 65 173 2.0 2.0 0.00 0.26 0.26 99 1006.0
20240616122057 65 226 0.0 2.0 0.00 0.26 0.26 99 1005.8
20240616121555 65 214 2.0 6.0 0.00 0.26 0.26 99 1005.9
20240616121054 65 201 0.0 1.0 0.00 0.26 0.26 99 1005.8
20240616120550 65 207 1.0 1.0 0.00 0.26 0.26 99 1005.9
20240616120050 64 213 0.0 1.0 0.00 0.26 0.26 99 1005.8
20240616115549 64 229 1.0 2.0 0.00 0.26 0.26 99 1006.1
20240616115048 64 244 0.0 5.0 0.00 0.26 0.26 99 1005.9
20240616114546 64 216 0.0 2.0 0.00 0.26 0.26 99 1005.8
20240616114046 64 216 1.0 2.0 0.00 0.26 0.26 99 1005.9
20240616113545 64 244 1.0 2.0 0.00 0.26 0.26 99 1006.0
20240616113044 64 212 1.0 3.0 0.00 0.26 0.26 99 1006.2
20240616112544 64 192 1.0 3.0 0.00 0.26 0.26 99 1006.1
20240616112042 63 217 1.0 2.0 0.00 0.26 0.26 99 1006.2
20240616111542 63 234 0.0 2.0 0.00 0.26 0.26 99 1006.1
20240616111040 63 198 0.0 1.0 0.00 0.26 0.26 99 1006.2
20240616110539 63 214 1.0 1.0 0.00 0.26 0.26 99 1006.3
20240616110037 63 208 1.0 3.0 0.00 0.26 0.26 99 1006.3
20240616105535 63 194 1.0 2.0 0.00 0.26 0.26 99 1006.3
20240616105034 63 162 1.0 5.0 0.00 0.26 0.26 99 1006.2
20240616104533 63 207 1.0 1.0 0.00 0.26 0.26 99 1006.5
20240616104032 63 234 0.0 1.0 0.00 0.26 0.26 99 1006.5
20240616103531 63 177 1.0 1.0 0.00 0.26 0.26 99 1006.4
20240616103031 63 201 1.0 2.0 0.00 0.26 0.26 99 1006.3
20240616102529 63 200 0.0 1.0 0.00 0.26 0.26 99 1006.2
20240616102028 63 201 0.0 3.0 0.00 0.26 0.26 99 1006.4
20240616101525 63 224 1.0 2.0 0.00 0.26 0.26 99 1006.3
20240616101024 63 215 1.0 1.0 0.00 0.26 0.26 99 1006.4
20240616100523 63 177 2.0 2.0 0.00 0.26 0.26 99 1006.2
20240616100022 62 176 1.0 3.0 0.00 0.26 0.26 99 1006.3
20240616095521 63 189 1.0 1.0 0.00 0.26 0.26 99 1006.3
20240616095020 63 226 0.0 2.0 0.00 0.26 0.26 99 1006.3
20240616094519 63 246 1.0 2.0 0.00 0.26 0.26 99 1006.3
20240616094017 63 226 1.0 2.0 0.00 0.26 0.26 99 1005.8
20240616093515 63 259 0.0 2.0 0.00 0.26 0.26 99 1006.2
20240616093014 63 153 3.0 6.0 0.00 0.26 0.26 99 1006.0
20240616092511 63 158 1.0 2.0 0.00 0.26 0.26 99 1006.1
20240616092010 63 253 0.0 1.0 0.00 0.26 0.26 99 1006.1
20240616091508 63 256 0.0 0.0 0.00 0.26 0.26 99 1006.4
20240616091006 63 241 0.0 0.0 0.00 0.26 0.26 99 1006.3
20240616090505 63 222 0.0 2.0 0.00 0.26 0.26 99 1006.0
20240616090004 63 255 0.0 0.0 0.00 0.26 0.26 99 1006.2
20240616085502 63 217 1.0 3.0 0.04 0.26 0.26 99 1005.9
20240616085003 63 252 1.0 2.0 0.04 0.26 0.26 99 1006.2
20240616084500 63 222 1.0 2.0 0.00 0.25 0.25 99 1006.3
20240616083959 63 207 2.0 5.0 0.00 0.25 0.25 99 1006.4
20240616083458 63 232 1.0 2.0 0.07 0.25 0.25 99 1006.6
20240616082956 63 172 2.0 2.0 0.04 0.24 0.24 99 1006.4
20240616082456 63 169 1.0 2.0 0.11 0.24 0.24 99 1006.4
20240616081954 63 178 2.0 3.0 0.11 0.23 0.23 99 1006.5
20240616081452 63 211 2.0 2.0 0.11 0.22 0.22 99 1006.6
20240616080951 64 149 2.0 5.0 0.07 0.21 0.21 99 1006.8
20240616080449 63 185 4.0 7.0 0.11 0.20 0.20 99 1007.0
20240616075949 63 220 2.0 3.0 0.18 0.19 0.19 99 1007.0
20240616075448 63 145 4.0 5.0 0.23 0.18 0.18 99 1007.1
20240616074947 63 288 2.0 6.0 0.18 0.15 0.15 99 1006.9